sensor_id;sensor_type;location;lat;lon;timestamp;temperature;humidity
43099;DHT22;28715;51.988;6.020;2023-04-03T00:01:33;5.10;96.20
43099;DHT22;28715;51.988;6.020;2023-04-03T00:03:59;5.10;96.20
43099;DHT22;28715;51.988;6.020;2023-04-03T00:06:25;5.10;96.20
43099;DHT22;28715;51.988;6.020;2023-04-03T00:08:51;5.00;96.20
43099;DHT22;28715;51.988;6.020;2023-04-03T00:11:17;5.00;96.40
43099;DHT22;28715;51.988;6.020;2023-04-03T00:13:43;5.00;96.40
43099;DHT22;28715;51.988;6.020;2023-04-03T00:16:10;5.00;96.50
43099;DHT22;28715;51.988;6.020;2023-04-03T00:18:37;5.00;96.50
43099;DHT22;28715;51.988;6.020;2023-04-03T00:21:04;5.00;96.50
43099;DHT22;28715;51.988;6.020;2023-04-03T00:23:30;4.90;96.80
43099;DHT22;28715;51.988;6.020;2023-04-03T00:25:56;5.00;96.50
43099;DHT22;28715;51.988;6.020;2023-04-03T00:28:21;5.00;96.60
43099;DHT22;28715;51.988;6.020;2023-04-03T00:30:49;4.90;96.50
43099;DHT22;28715;51.988;6.020;2023-04-03T00:33:15;4.90;96.60
43099;DHT22;28715;51.988;6.020;2023-04-03T00:35:41;4.90;96.60
43099;DHT22;28715;51.988;6.020;2023-04-03T00:38:08;4.90;96.70
43099;DHT22;28715;51.988;6.020;2023-04-03T00:40:41;4.90;96.70
43099;DHT22;28715;51.988;6.020;2023-04-03T00:43:19;4.90;96.70
43099;DHT22;28715;51.988;6.020;2023-04-03T00:45:52;4.90;96.80
43099;DHT22;28715;51.988;6.020;2023-04-03T00:50:55;4.80;96.80
43099;DHT22;28715;51.988;6.020;2023-04-03T00:53:30;4.80;96.90
43099;DHT22;28715;51.988;6.020;2023-04-03T00:55:57;4.70;97.00
43099;DHT22;28715;51.988;6.020;2023-04-03T00:58:32;4.70;97.10
43099;DHT22;28715;51.988;6.020;2023-04-03T01:01:03;4.70;97.10
43099;DHT22;28715;51.988;6.020;2023-04-03T01:03:30;4.70;97.20
43099;DHT22;28715;51.988;6.020;2023-04-03T01:05:57;4.70;97.20
43099;DHT22;28715;51.988;6.020;2023-04-03T01:08:23;4.60;97.20
43099;DHT22;28715;51.988;6.020;2023-04-03T01:10:49;4.60;97.30
43099;DHT22;28715;51.988;6.020;2023-04-03T01:13:27;4.60;97.40
43099;DHT22;28715;51.988;6.020;2023-04-03T01:15:53;4.60;97.50
43099;DHT22;28715;51.988;6.020;2023-04-03T01:18:18;4.60;97.50
43099;DHT22;28715;51.988;6.020;2023-04-03T01:26:13;4.60;97.80
43099;DHT22;28715;51.988;6.020;2023-04-03T01:28:39;4.50;97.80
43099;DHT22;28715;51.988;6.020;2023-04-03T01:31:15;4.50;98.20
43099;DHT22;28715;51.988;6.020;2023-04-03T01:33:44;4.50;97.90
43099;DHT22;28715;51.988;6.020;2023-04-03T01:36:16;4.50;98.00
43099;DHT22;28715;51.988;6.020;2023-04-03T01:38:42;4.50;98.10
43099;DHT22;28715;51.988;6.020;2023-04-03T01:41:09;4.50;98.20
43099;DHT22;28715;51.988;6.020;2023-04-03T01:43:35;4.50;98.30
43099;DHT22;28715;51.988;6.020;2023-04-03T01:46:00;4.50;98.40
43099;DHT22;28715;51.988;6.020;2023-04-03T01:48:26;4.40;98.50
43099;DHT22;28715;51.988;6.020;2023-04-03T01:50:52;4.40;98.60
43099;DHT22;28715;51.988;6.020;2023-04-03T01:53:17;4.40;98.70
43099;DHT22;28715;51.988;6.020;2023-04-03T01:55:43;4.40;98.80
43099;DHT22;28715;51.988;6.020;2023-04-03T01:58:08;4.40;98.80
43099;DHT22;28715;51.988;6.020;2023-04-03T02:00:34;4.40;98.90
43099;DHT22;28715;51.988;6.020;2023-04-03T02:03:01;4.40;99.00
43099;DHT22;28715;51.988;6.020;2023-04-03T02:05:27;4.40;99.10
43099;DHT22;28715;51.988;6.020;2023-04-03T02:07:52;4.40;99.10
43099;DHT22;28715;51.988;6.020;2023-04-03T02:10:18;4.40;99.20
43099;DHT22;28715;51.988;6.020;2023-04-03T02:12:43;4.30;99.30
43099;DHT22;28715;51.988;6.020;2023-04-03T02:15:09;4.30;99.40
43099;DHT22;28715;51.988;6.020;2023-04-03T02:17:35;4.30;99.30
43099;DHT22;28715;51.988;6.020;2023-04-03T02:20:01;4.30;99.40
43099;DHT22;28715;51.988;6.020;2023-04-03T02:22:28;4.20;99.40
43099;DHT22;28715;51.988;6.020;2023-04-03T02:24:54;4.20;99.50
43099;DHT22;28715;51.988;6.020;2023-04-03T02:27:19;4.20;99.60
43099;DHT22;28715;51.988;6.020;2023-04-03T02:29:45;4.20;99.60
43099;DHT22;28715;51.988;6.020;2023-04-03T02:32:11;4.10;99.70
43099;DHT22;28715;51.988;6.020;2023-04-03T02:34:36;4.20;99.80
43099;DHT22;28715;51.988;6.020;2023-04-03T02:37:02;4.10;99.80
43099;DHT22;28715;51.988;6.020;2023-04-03T02:39:27;4.10;99.80
43099;DHT22;28715;51.988;6.020;2023-04-03T02:41:53;4.10;99.90
43099;DHT22;28715;51.988;6.020;2023-04-03T02:44:19;4.10;99.90
43099;DHT22;28715;51.988;6.020;2023-04-03T02:46:44;4.10;99.90
43099;DHT22;28715;51.988;6.020;2023-04-03T02:49:10;4.10;99.90
43099;DHT22;28715;51.988;6.020;2023-04-03T02:51:35;4.10;99.90
43099;DHT22;28715;51.988;6.020;2023-04-03T02:54:01;4.10;99.90
43099;DHT22;28715;51.988;6.020;2023-04-03T02:56:26;4.10;99.90
43099;DHT22;28715;51.988;6.020;2023-04-03T02:58:52;4.00;99.90
43099;DHT22;28715;51.988;6.020;2023-04-03T03:01:18;4.00;99.90
43099;DHT22;28715;51.988;6.020;2023-04-03T03:03:44;4.00;99.90
43099;DHT22;28715;51.988;6.020;2023-04-03T03:06:12;4.00;99.90
43099;DHT22;28715;51.988;6.020;2023-04-03T03:08:38;4.00;99.90
43099;DHT22;28715;51.988;6.020;2023-04-03T03:11:04;4.00;99.90
43099;DHT22;28715;51.988;6.020;2023-04-03T03:13:30;3.90;99.90
43099;DHT22;28715;51.988;6.020;2023-04-03T03:15:56;3.90;99.90
43099;DHT22;28715;51.988;6.020;2023-04-03T03:18:22;3.90;99.90
43099;DHT22;28715;51.988;6.020;2023-04-03T03:20:52;3.80;99.90
43099;DHT22;28715;51.988;6.020;2023-04-03T03:23:18;3.90;99.90
43099;DHT22;28715;51.988;6.020;2023-04-03T03:25:43;3.80;99.90
43099;DHT22;28715;51.988;6.020;2023-04-03T03:28:09;3.80;99.90
43099;DHT22;28715;51.988;6.020;2023-04-03T03:30:35;3.80;99.90
43099;DHT22;28715;51.988;6.020;2023-04-03T03:33:01;3.80;99.90
43099;DHT22;28715;51.988;6.020;2023-04-03T03:35:26;3.80;99.90
43099;DHT22;28715;51.988;6.020;2023-04-03T03:37:52;3.80;99.90
43099;DHT22;28715;51.988;6.020;2023-04-03T03:40:17;3.70;99.90
43099;DHT22;28715;51.988;6.020;2023-04-03T03:42:43;3.70;99.90
43099;DHT22;28715;51.988;6.020;2023-04-03T03:45:09;3.60;99.90
43099;DHT22;28715;51.988;6.020;2023-04-03T03:47:35;3.70;99.90
43099;DHT22;28715;51.988;6.020;2023-04-03T03:50:01;3.70;99.90
43099;DHT22;28715;51.988;6.020;2023-04-03T03:52:26;3.60;99.90
43099;DHT22;28715;51.988;6.020;2023-04-03T03:54:52;3.60;99.90
43099;DHT22;28715;51.988;6.020;2023-04-03T03:57:18;3.60;99.90
43099;DHT22;28715;51.988;6.020;2023-04-03T03:59:43;3.60;99.90
43099;DHT22;28715;51.988;6.020;2023-04-03T04:02:10;3.50;99.90
43099;DHT22;28715;51.988;6.020;2023-04-03T04:04:36;3.50;99.90
43099;DHT22;28715;51.988;6.020;2023-04-03T04:07:03;3.50;99.90
43099;DHT22;28715;51.988;6.020;2023-04-03T04:09:29;3.50;99.90
43099;DHT22;28715;51.988;6.020;2023-04-03T04:11:54;3.50;99.90
43099;DHT22;28715;51.988;6.020;2023-04-03T04:14:20;3.50;99.90
43099;DHT22;28715;51.988;6.020;2023-04-03T04:16:46;3.40;99.90
43099;DHT22;28715;51.988;6.020;2023-04-03T04:19:12;3.40;99.90
43099;DHT22;28715;51.988;6.020;2023-04-03T04:21:38;3.40;99.90
43099;DHT22;28715;51.988;6.020;2023-04-03T04:24:05;3.30;99.90
43099;DHT22;28715;51.988;6.020;2023-04-03T04:26:30;3.30;99.90
43099;DHT22;28715;51.988;6.020;2023-04-03T04:28:56;3.30;99.90
43099;DHT22;28715;51.988;6.020;2023-04-03T04:31:22;3.30;99.90
43099;DHT22;28715;51.988;6.020;2023-04-03T04:33:47;3.30;99.90
43099;DHT22;28715;51.988;6.020;2023-04-03T04:36:13;3.20;99.90
43099;DHT22;28715;51.988;6.020;2023-04-03T04:38:40;3.20;99.90
43099;DHT22;28715;51.988;6.020;2023-04-03T04:41:05;3.20;99.90
43099;DHT22;28715;51.988;6.020;2023-04-03T04:43:31;3.20;99.90
43099;DHT22;28715;51.988;6.020;2023-04-03T04:46:07;3.10;99.90
43099;DHT22;28715;51.988;6.020;2023-04-03T04:48:33;3.10;99.90
43099;DHT22;28715;51.988;6.020;2023-04-03T04:50:59;3.10;99.90
43099;DHT22;28715;51.988;6.020;2023-04-03T04:53:25;3.10;99.90
43099;DHT22;28715;51.988;6.020;2023-04-03T04:55:51;3.10;99.90
43099;DHT22;28715;51.988;6.020;2023-04-03T04:58:18;3.10;99.90
43099;DHT22;28715;51.988;6.020;2023-04-03T05:00:43;3.10;99.90
43099;DHT22;28715;51.988;6.020;2023-04-03T05:03:09;3.10;99.90
43099;DHT22;28715;51.988;6.020;2023-04-03T05:05:35;3.00;99.90
43099;DHT22;28715;51.988;6.020;2023-04-03T05:08:01;3.00;99.90
43099;DHT22;28715;51.988;6.020;2023-04-03T05:10:28;3.00;99.90
43099;DHT22;28715;51.988;6.020;2023-04-03T05:12:53;3.00;99.90
43099;DHT22;28715;51.988;6.020;2023-04-03T05:15:19;3.00;99.90
43099;DHT22;28715;51.988;6.020;2023-04-03T05:17:45;3.00;99.90
43099;DHT22;28715;51.988;6.020;2023-04-03T05:20:11;3.00;99.90
43099;DHT22;28715;51.988;6.020;2023-04-03T05:22:38;2.90;99.90
43099;DHT22;28715;51.988;6.020;2023-04-03T05:25:04;3.00;99.90
43099;DHT22;28715;51.988;6.020;2023-04-03T05:27:30;3.00;99.90
43099;DHT22;28715;51.988;6.020;2023-04-03T05:29:56;3.00;99.90
43099;DHT22;28715;51.988;6.020;2023-04-03T05:32:23;3.00;99.90
43099;DHT22;28715;51.988;6.020;2023-04-03T05:34:50;3.00;99.90
43099;DHT22;28715;51.988;6.020;2023-04-03T05:37:17;3.00;99.90
43099;DHT22;28715;51.988;6.020;2023-04-03T05:39:42;2.90;99.90
43099;DHT22;28715;51.988;6.020;2023-04-03T05:42:08;2.90;99.90
43099;DHT22;28715;51.988;6.020;2023-04-03T05:44:35;2.90;99.90
43099;DHT22;28715;51.988;6.020;2023-04-03T05:47:01;2.90;99.90
43099;DHT22;28715;51.988;6.020;2023-04-03T05:49:26;2.90;99.90
43099;DHT22;28715;51.988;6.020;2023-04-03T05:51:52;2.90;99.90
43099;DHT22;28715;51.988;6.020;2023-04-03T05:54:21;3.00;99.90
43099;DHT22;28715;51.988;6.020;2023-04-03T05:56:49;3.10;99.90
43099;DHT22;28715;51.988;6.020;2023-04-03T05:59:15;3.20;99.90
43099;DHT22;28715;51.988;6.020;2023-04-03T06:01:40;3.30;99.90
43099;DHT22;28715;51.988;6.020;2023-04-03T06:04:07;3.30;99.90
43099;DHT22;28715;51.988;6.020;2023-04-03T06:09:11;3.40;99.90
43099;DHT22;28715;51.988;6.020;2023-04-03T06:11:37;3.50;99.90
43099;DHT22;28715;51.988;6.020;2023-04-03T06:14:02;3.50;99.90
43099;DHT22;28715;51.988;6.020;2023-04-03T06:16:30;3.50;99.90
43099;DHT22;28715;51.988;6.020;2023-04-03T06:18:56;3.60;99.90
43099;DHT22;28715;51.988;6.020;2023-04-03T06:21:22;3.70;99.90
43099;DHT22;28715;51.988;6.020;2023-04-03T06:23:47;3.80;99.90
43099;DHT22;28715;51.988;6.020;2023-04-03T06:26:13;3.90;99.90
43099;DHT22;28715;51.988;6.020;2023-04-03T06:28:38;4.00;99.90
43099;DHT22;28715;51.988;6.020;2023-04-03T06:31:04;4.00;99.90
43099;DHT22;28715;51.988;6.020;2023-04-03T06:33:32;4.10;99.90
43099;DHT22;28715;51.988;6.020;2023-04-03T06:35:58;4.20;99.90
43099;DHT22;28715;51.988;6.020;2023-04-03T06:38:24;4.20;99.70
43099;DHT22;28715;51.988;6.020;2023-04-03T06:40:49;4.20;99.60
43099;DHT22;28715;51.988;6.020;2023-04-03T06:43:15;4.30;99.50
43099;DHT22;28715;51.988;6.020;2023-04-03T06:45:40;4.30;99.50
43099;DHT22;28715;51.988;6.020;2023-04-03T06:48:06;4.30;99.20
43099;DHT22;28715;51.988;6.020;2023-04-03T06:50:31;4.40;99.30
43099;DHT22;28715;51.988;6.020;2023-04-03T06:52:57;4.40;99.30
43099;DHT22;28715;51.988;6.020;2023-04-03T06:55:23;4.60;99.10
43099;DHT22;28715;51.988;6.020;2023-04-03T06:57:48;4.70;98.90
43099;DHT22;28715;51.988;6.020;2023-04-03T07:00:14;4.90;98.50
43099;DHT22;28715;51.988;6.020;2023-04-03T07:02:41;5.00;98.30
43099;DHT22;28715;51.988;6.020;2023-04-03T07:05:07;5.10;98.30
43099;DHT22;28715;51.988;6.020;2023-04-03T07:07:34;5.20;98.00
43099;DHT22;28715;51.988;6.020;2023-04-03T07:10:00;5.30;97.80
43099;DHT22;28715;51.988;6.020;2023-04-03T07:12:25;5.40;97.70
43099;DHT22;28715;51.988;6.020;2023-04-03T07:14:51;5.50;97.50
43099;DHT22;28715;51.988;6.020;2023-04-03T07:17:17;5.60;97.30
43099;DHT22;28715;51.988;6.020;2023-04-03T07:19:42;5.70;97.10
43099;DHT22;28715;51.988;6.020;2023-04-03T07:22:08;5.70;96.90
43099;DHT22;28715;51.988;6.020;2023-04-03T07:24:36;5.80;96.60
43099;DHT22;28715;51.988;6.020;2023-04-03T07:27:02;5.90;96.50
43099;DHT22;28715;51.988;6.020;2023-04-03T07:29:28;6.10;96.20
43099;DHT22;28715;51.988;6.020;2023-04-03T07:31:54;6.30;95.70
43099;DHT22;28715;51.988;6.020;2023-04-03T07:34:21;6.50;95.60
43099;DHT22;28715;51.988;6.020;2023-04-03T07:36:47;6.60;94.90
43099;DHT22;28715;51.988;6.020;2023-04-03T07:39:12;6.80;95.40
43099;DHT22;28715;51.988;6.020;2023-04-03T07:41:38;7.00;94.70
43099;DHT22;28715;51.988;6.020;2023-04-03T07:44:04;7.20;94.00
43099;DHT22;28715;51.988;6.020;2023-04-03T07:46:31;7.40;93.40
43099;DHT22;28715;51.988;6.020;2023-04-03T07:48:56;7.70;93.20
43099;DHT22;28715;51.988;6.020;2023-04-03T07:51:22;8.00;92.30
43099;DHT22;28715;51.988;6.020;2023-04-03T07:53:49;8.30;91.60
43099;DHT22;28715;51.988;6.020;2023-04-03T07:56:16;8.70;91.70
43099;DHT22;28715;51.988;6.020;2023-04-03T07:58:42;9.10;90.70
43099;DHT22;28715;51.988;6.020;2023-04-03T08:01:07;9.40;88.90
43099;DHT22;28715;51.988;6.020;2023-04-03T08:03:33;9.60;87.80
43099;DHT22;28715;51.988;6.020;2023-04-03T08:06:04;9.90;86.40
43099;DHT22;28715;51.988;6.020;2023-04-03T08:08:30;10.10;85.90
43099;DHT22;28715;51.988;6.020;2023-04-03T08:10:58;10.30;84.50
43099;DHT22;28715;51.988;6.020;2023-04-03T08:13:24;10.50;84.10
43099;DHT22;28715;51.988;6.020;2023-04-03T08:15:50;10.70;78.80
43099;DHT22;28715;51.988;6.020;2023-04-03T08:18:16;10.80;81.60
43099;DHT22;28715;51.988;6.020;2023-04-03T08:20:42;10.90;80.80
43099;DHT22;28715;51.988;6.020;2023-04-03T08:23:09;11.00;79.60
43099;DHT22;28715;51.988;6.020;2023-04-03T08:25:40;11.20;78.50
43099;DHT22;28715;51.988;6.020;2023-04-03T08:28:06;11.30;77.80
43099;DHT22;28715;51.988;6.020;2023-04-03T08:30:31;11.40;77.50
43099;DHT22;28715;51.988;6.020;2023-04-03T08:32:57;11.60;76.50
43099;DHT22;28715;51.988;6.020;2023-04-03T08:35:25;11.70;75.70
43099;DHT22;28715;51.988;6.020;2023-04-03T08:37:50;11.90;74.20
43099;DHT22;28715;51.988;6.020;2023-04-03T08:40:16;12.00;72.30
43099;DHT22;28715;51.988;6.020;2023-04-03T08:43:16;12.10;72.40
43099;DHT22;28715;51.988;6.020;2023-04-03T08:45:53;12.10;71.20
43099;DHT22;28715;51.988;6.020;2023-04-03T08:48:23;12.20;72.60
43099;DHT22;28715;51.988;6.020;2023-04-03T08:50:54;12.30;71.90
43099;DHT22;28715;51.988;6.020;2023-04-03T08:53:26;12.50;70.90
43099;DHT22;28715;51.988;6.020;2023-04-03T08:55:55;12.70;69.00
43099;DHT22;28715;51.988;6.020;2023-04-03T08:58:36;12.70;66.00
43099;DHT22;28715;51.988;6.020;2023-04-03T09:01:26;12.50;65.50
43099;DHT22;28715;51.988;6.020;2023-04-03T09:03:53;12.50;63.90
43099;DHT22;28715;51.988;6.020;2023-04-03T09:06:26;12.40;63.10
43099;DHT22;28715;51.988;6.020;2023-04-03T09:17:44;12.70;63.50
43099;DHT22;28715;51.988;6.020;2023-04-03T09:22:50;12.40;59.60
43099;DHT22;28715;51.988;6.020;2023-04-03T09:25:31;12.20;58.50
43099;DHT22;28715;51.988;6.020;2023-04-03T09:28:00;12.10;57.50
43099;DHT22;28715;51.988;6.020;2023-04-03T09:30:27;12.00;57.50
43099;DHT22;28715;51.988;6.020;2023-04-03T09:32:55;12.00;60.30
43099;DHT22;28715;51.988;6.020;2023-04-03T09:37:49;12.30;62.70
43099;DHT22;28715;51.988;6.020;2023-04-03T09:40:29;12.50;60.00
43099;DHT22;28715;51.988;6.020;2023-04-03T09:42:59;12.40;55.60
43099;DHT22;28715;51.988;6.020;2023-04-03T09:45:34;12.10;58.10
43099;DHT22;28715;51.988;6.020;2023-04-03T09:53:38;12.40;61.60
43099;DHT22;28715;51.988;6.020;2023-04-03T09:56:31;12.40;59.60
43099;DHT22;28715;51.988;6.020;2023-04-03T10:06:32;12.30;57.80
43099;DHT22;28715;51.988;6.020;2023-04-03T10:09:01;12.20;58.40
43099;DHT22;28715;51.988;6.020;2023-04-03T10:11:30;12.20;58.80
43099;DHT22;28715;51.988;6.020;2023-04-03T10:13:58;12.10;58.00
43099;DHT22;28715;51.988;6.020;2023-04-03T10:21:47;11.80;58.50
43099;DHT22;28715;51.988;6.020;2023-04-03T10:27:36;11.90;56.50
43099;DHT22;28715;51.988;6.020;2023-04-03T10:30:28;11.80;59.90
43099;DHT22;28715;51.988;6.020;2023-04-03T10:33:11;12.00;63.90
43099;DHT22;28715;51.988;6.020;2023-04-03T10:39:02;12.20;58.30
43099;DHT22;28715;51.988;6.020;2023-04-03T10:46:34;12.10;59.70
43099;DHT22;28715;51.988;6.020;2023-04-03T10:49:04;12.30;59.10
43099;DHT22;28715;51.988;6.020;2023-04-03T10:51:51;12.20;59.70
43099;DHT22;28715;51.988;6.020;2023-04-03T10:54:32;12.20;57.10
43099;DHT22;28715;51.988;6.020;2023-04-03T10:57:03;12.00;58.50
43099;DHT22;28715;51.988;6.020;2023-04-03T10:59:39;11.90;57.10
43099;DHT22;28715;51.988;6.020;2023-04-03T11:02:26;11.90;60.90
43099;DHT22;28715;51.988;6.020;2023-04-03T11:05:18;11.70;56.40
43099;DHT22;28715;51.988;6.020;2023-04-03T11:07:49;11.60;58.10
43099;DHT22;28715;51.988;6.020;2023-04-03T11:10:26;11.50;58.20
43099;DHT22;28715;51.988;6.020;2023-04-03T11:15:42;11.30;56.30
43099;DHT22;28715;51.988;6.020;2023-04-03T11:18:19;11.10;56.10
43099;DHT22;28715;51.988;6.020;2023-04-03T11:21:20;10.90;58.30
43099;DHT22;28715;51.988;6.020;2023-04-03T11:23:47;11.10;60.90
43099;DHT22;28715;51.988;6.020;2023-04-03T11:26:23;11.20;59.60
43099;DHT22;28715;51.988;6.020;2023-04-03T11:29:02;11.40;61.80
43099;DHT22;28715;51.988;6.020;2023-04-03T11:34:46;11.60;59.70
43099;DHT22;28715;51.988;6.020;2023-04-03T11:37:33;11.60;57.70
43099;DHT22;28715;51.988;6.020;2023-04-03T11:40:05;11.60;59.60
43099;DHT22;28715;51.988;6.020;2023-04-03T11:42:44;11.60;60.10
43099;DHT22;28715;51.988;6.020;2023-04-03T11:47:54;11.60;61.40
43099;DHT22;28715;51.988;6.020;2023-04-03T12:22:04;11.60;58.60
43099;DHT22;28715;51.988;6.020;2023-04-03T12:27:03;11.40;60.30
43099;DHT22;28715;51.988;6.020;2023-04-03T12:51:21;11.90;62.40
43099;DHT22;28715;51.988;6.020;2023-04-03T12:53:50;11.80;60.00
43099;DHT22;28715;51.988;6.020;2023-04-03T12:56:26;11.70;63.10
43099;DHT22;28715;51.988;6.020;2023-04-03T12:58:54;11.70;59.50
43099;DHT22;28715;51.988;6.020;2023-04-03T13:01:24;11.70;61.40
43099;DHT22;28715;51.988;6.020;2023-04-03T13:03:54;11.60;60.90
43099;DHT22;28715;51.988;6.020;2023-04-03T13:06:24;11.70;62.80
43099;DHT22;28715;51.988;6.020;2023-04-03T13:08:53;11.70;62.00
43099;DHT22;28715;51.988;6.020;2023-04-03T13:11:20;11.70;61.40
43099;DHT22;28715;51.988;6.020;2023-04-03T13:14:02;11.70;62.60
43099;DHT22;28715;51.988;6.020;2023-04-03T13:16:29;11.80;64.10
43099;DHT22;28715;51.988;6.020;2023-04-03T13:18:55;11.80;63.70
43099;DHT22;28715;51.988;6.020;2023-04-03T13:21:27;11.80;62.40
43099;DHT22;28715;51.988;6.020;2023-04-03T13:23:57;11.80;62.20
43099;DHT22;28715;51.988;6.020;2023-04-03T13:26:25;11.80;62.80
43099;DHT22;28715;51.988;6.020;2023-04-03T13:28:53;11.90;63.90
43099;DHT22;28715;51.988;6.020;2023-04-03T13:31:25;11.80;59.10
43099;DHT22;28715;51.988;6.020;2023-04-03T13:34:03;11.70;63.20
43099;DHT22;28715;51.988;6.020;2023-04-03T13:36:36;11.80;62.40
43099;DHT22;28715;51.988;6.020;2023-04-03T13:41:43;11.90;62.80
43099;DHT22;28715;51.988;6.020;2023-04-03T13:46:42;11.70;60.10
43099;DHT22;28715;51.988;6.020;2023-04-03T13:49:45;11.70;62.10
43099;DHT22;28715;51.988;6.020;2023-04-03T13:54:52;11.60;59.40
43099;DHT22;28715;51.988;6.020;2023-04-03T13:57:19;11.50;61.60
43099;DHT22;28715;51.988;6.020;2023-04-03T13:59:45;11.50;63.60
43099;DHT22;28715;51.988;6.020;2023-04-03T14:02:32;11.50;63.70
43099;DHT22;28715;51.988;6.020;2023-04-03T14:04:59;11.60;64.60
43099;DHT22;28715;51.988;6.020;2023-04-03T14:07:29;11.60;63.90
43099;DHT22;28715;51.988;6.020;2023-04-03T14:09:56;11.60;63.80
43099;DHT22;28715;51.988;6.020;2023-04-03T14:12:35;11.60;63.70
43099;DHT22;28715;51.988;6.020;2023-04-03T14:15:06;11.70;62.10
43099;DHT22;28715;51.988;6.020;2023-04-03T14:17:36;11.70;64.50
43099;DHT22;28715;51.988;6.020;2023-04-03T14:20:02;11.70;62.70
43099;DHT22;28715;51.988;6.020;2023-04-03T14:22:31;11.60;65.10
43099;DHT22;28715;51.988;6.020;2023-04-03T14:24:58;11.60;65.30
43099;DHT22;28715;51.988;6.020;2023-04-03T14:27:28;11.60;65.40
43099;DHT22;28715;51.988;6.020;2023-04-03T14:29:58;11.60;63.80
43099;DHT22;28715;51.988;6.020;2023-04-03T14:32:24;11.50;62.80
43099;DHT22;28715;51.988;6.020;2023-04-03T14:34:51;11.50;64.10
43099;DHT22;28715;51.988;6.020;2023-04-03T14:37:23;11.50;66.00
43099;DHT22;28715;51.988;6.020;2023-04-03T14:39:51;11.50;65.80
43099;DHT22;28715;51.988;6.020;2023-04-03T14:42:24;11.50;64.40
43099;DHT22;28715;51.988;6.020;2023-04-03T14:44:51;11.60;67.10
43099;DHT22;28715;51.988;6.020;2023-04-03T14:47:21;11.50;61.70
43099;DHT22;28715;51.988;6.020;2023-04-03T14:49:48;11.30;64.10
43099;DHT22;28715;51.988;6.020;2023-04-03T14:52:29;11.20;63.50
43099;DHT22;28715;51.988;6.020;2023-04-03T14:54:56;11.00;62.30
43099;DHT22;28715;51.988;6.020;2023-04-03T14:57:24;10.70;62.40
43099;DHT22;28715;51.988;6.020;2023-04-03T14:59:50;10.50;65.10
43099;DHT22;28715;51.988;6.020;2023-04-03T15:04:56;10.70;67.80
43099;DHT22;28715;51.988;6.020;2023-04-03T15:07:26;10.80;69.60
43099;DHT22;28715;51.988;6.020;2023-04-03T15:09:52;10.90;70.30
43099;DHT22;28715;51.988;6.020;2023-04-03T15:12:18;11.00;67.40
43099;DHT22;28715;51.988;6.020;2023-04-03T15:14:44;11.00;68.40
43099;DHT22;28715;51.988;6.020;2023-04-03T15:17:19;11.00;68.10
43099;DHT22;28715;51.988;6.020;2023-04-03T15:19:45;11.10;68.20
43099;DHT22;28715;51.988;6.020;2023-04-03T15:22:16;11.10;67.70
43099;DHT22;28715;51.988;6.020;2023-04-03T15:24:43;11.00;67.90
43099;DHT22;28715;51.988;6.020;2023-04-03T15:27:10;10.90;66.30
43099;DHT22;28715;51.988;6.020;2023-04-03T15:29:37;10.70;65.00
43099;DHT22;28715;51.988;6.020;2023-04-03T15:32:03;10.60;66.70
43099;DHT22;28715;51.988;6.020;2023-04-03T15:34:29;10.60;67.60
43099;DHT22;28715;51.988;6.020;2023-04-03T15:36:54;10.60;66.40
43099;DHT22;28715;51.988;6.020;2023-04-03T15:39:20;10.60;65.00
43099;DHT22;28715;51.988;6.020;2023-04-03T15:41:46;10.60;67.70
43099;DHT22;28715;51.988;6.020;2023-04-03T15:44:12;10.60;69.30
43099;DHT22;28715;51.988;6.020;2023-04-03T15:46:38;10.70;69.40
43099;DHT22;28715;51.988;6.020;2023-04-03T15:49:05;10.70;68.20
43099;DHT22;28715;51.988;6.020;2023-04-03T15:51:31;10.80;68.20
43099;DHT22;28715;51.988;6.020;2023-04-03T15:53:57;10.70;67.80
43099;DHT22;28715;51.988;6.020;2023-04-03T15:56:22;10.70;68.30
43099;DHT22;28715;51.988;6.020;2023-04-03T15:58:48;10.70;66.90
43099;DHT22;28715;51.988;6.020;2023-04-03T16:01:14;10.60;67.00
43099;DHT22;28715;51.988;6.020;2023-04-03T16:03:41;10.60;67.20
43099;DHT22;28715;51.988;6.020;2023-04-03T16:06:12;10.60;68.50
43099;DHT22;28715;51.988;6.020;2023-04-03T16:08:38;10.50;67.40
43099;DHT22;28715;51.988;6.020;2023-04-03T16:11:03;10.40;67.30
43099;DHT22;28715;51.988;6.020;2023-04-03T16:13:29;10.30;65.30
43099;DHT22;28715;51.988;6.020;2023-04-03T16:15:56;10.20;66.80
43099;DHT22;28715;51.988;6.020;2023-04-03T16:18:21;10.10;68.40
43099;DHT22;28715;51.988;6.020;2023-04-03T16:20:47;10.10;69.80
43099;DHT22;28715;51.988;6.020;2023-04-03T16:23:13;10.10;67.80
43099;DHT22;28715;51.988;6.020;2023-04-03T16:25:38;10.10;69.90
43099;DHT22;28715;51.988;6.020;2023-04-03T16:28:04;10.10;66.00
43099;DHT22;28715;51.988;6.020;2023-04-03T16:30:30;10.00;66.40
43099;DHT22;28715;51.988;6.020;2023-04-03T16:32:56;9.90;66.60
43099;DHT22;28715;51.988;6.020;2023-04-03T16:35:22;9.80;66.40
43099;DHT22;28715;51.988;6.020;2023-04-03T16:37:48;9.70;65.50
43099;DHT22;28715;51.988;6.020;2023-04-03T16:40:13;9.60;67.50
43099;DHT22;28715;51.988;6.020;2023-04-03T16:42:40;9.60;70.30
43099;DHT22;28715;51.988;6.020;2023-04-03T16:45:06;9.60;69.40
43099;DHT22;28715;51.988;6.020;2023-04-03T16:47:33;9.70;71.30
43099;DHT22;28715;51.988;6.020;2023-04-03T16:49:58;9.70;70.40
43099;DHT22;28715;51.988;6.020;2023-04-03T16:52:24;9.70;70.10
43099;DHT22;28715;51.988;6.020;2023-04-03T16:54:49;9.60;69.90
43099;DHT22;28715;51.988;6.020;2023-04-03T16:57:21;9.60;70.10
43099;DHT22;28715;51.988;6.020;2023-04-03T16:59:46;9.60;70.80
43099;DHT22;28715;51.988;6.020;2023-04-03T17:02:12;9.60;71.40
43099;DHT22;28715;51.988;6.020;2023-04-03T17:04:37;9.70;72.00
43099;DHT22;28715;51.988;6.020;2023-04-03T17:07:03;9.70;72.10
43099;DHT22;28715;51.988;6.020;2023-04-03T17:09:32;9.60;70.10
43099;DHT22;28715;51.988;6.020;2023-04-03T17:11:58;9.40;68.00
43099;DHT22;28715;51.988;6.020;2023-04-03T17:14:24;9.40;69.60
43099;DHT22;28715;51.988;6.020;2023-04-03T17:16:50;9.30;70.00
43099;DHT22;28715;51.988;6.020;2023-04-03T17:19:16;9.30;68.50
43099;DHT22;28715;51.988;6.020;2023-04-03T17:21:42;9.20;70.20
43099;DHT22;28715;51.988;6.020;2023-04-03T17:24:10;9.10;68.70
43099;DHT22;28715;51.988;6.020;2023-04-03T17:26:40;9.10;70.30
43099;DHT22;28715;51.988;6.020;2023-04-03T17:29:06;9.20;72.40
43099;DHT22;28715;51.988;6.020;2023-04-03T17:31:32;9.10;69.50
43099;DHT22;28715;51.988;6.020;2023-04-03T17:33:58;9.10;71.50
43099;DHT22;28715;51.988;6.020;2023-04-03T17:36:27;9.00;71.00
43099;DHT22;28715;51.988;6.020;2023-04-03T17:38:53;9.00;70.60
43099;DHT22;28715;51.988;6.020;2023-04-03T17:41:19;8.90;69.80
43099;DHT22;28715;51.988;6.020;2023-04-03T17:43:45;8.80;71.30
43099;DHT22;28715;51.988;6.020;2023-04-03T17:46:10;8.80;71.20
43099;DHT22;28715;51.988;6.020;2023-04-03T17:48:38;8.70;71.00
43099;DHT22;28715;51.988;6.020;2023-04-03T17:51:06;8.70;71.80
43099;DHT22;28715;51.988;6.020;2023-04-03T17:53:32;8.60;72.10
43099;DHT22;28715;51.988;6.020;2023-04-03T17:55:58;8.60;71.60